createdAt,value
2019-01-06T00:04:47.304Z,0.70
2019-01-06T00:10:12.138Z,0.70
2019-01-06T00:15:36.984Z,0.60
2019-01-06T00:21:01.417Z,0.70
2019-01-06T00:26:27.469Z,0.70
2019-01-06T00:32:05.753Z,0.60
2019-01-06T00:37:30.420Z,0.50
2019-01-06T00:43:03.609Z,0.50
2019-01-06T00:48:32.598Z,0.50
2019-01-06T00:54:02.627Z,0.50
2019-01-06T00:59:27.149Z,0.50
2019-01-06T01:04:53.623Z,0.50
2019-01-06T01:10:19.671Z,0.40
2019-01-06T01:15:44.300Z,0.40
2019-01-06T01:21:10.000Z,0.40
2019-01-06T01:26:34.690Z,0.40
2019-01-06T01:31:59.188Z,0.40
2019-01-06T01:37:34.381Z,0.40
2019-01-06T01:43:00.322Z,0.50
2019-01-06T01:48:27.271Z,0.40
2019-01-06T01:53:59.214Z,0.50
2019-01-06T01:59:14.427Z,0.40
2019-01-06T02:04:39.119Z,0.40
2019-01-06T02:10:05.177Z,0.30
2019-01-06T02:15:29.949Z,0.40
2019-01-06T02:21:03.458Z,0.40
2019-01-06T02:26:29.378Z,0.50
2019-01-06T02:31:55.533Z,0.50
2019-01-06T02:37:41.214Z,0.40
2019-01-06T02:43:16.201Z,0.40
2019-01-06T02:48:40.905Z,0.40
2019-01-06T02:54:05.553Z,0.40
2019-01-06T02:59:40.364Z,0.40
2019-01-06T03:05:06.465Z,0.40
2019-01-06T03:10:41.657Z,0.40
2019-01-06T03:16:04.843Z,0.40
2019-01-06T03:21:37.505Z,0.40
2019-01-06T03:26:57.011Z,0.30
2019-01-06T03:32:14.894Z,0.40
2019-01-06T03:37:46.776Z,0.40
2019-01-06T03:43:07.473Z,0.40
2019-01-06T03:48:32.201Z,0.40
2019-01-06T03:54:05.041Z,0.40
2019-01-06T03:59:30.906Z,0.40
2019-01-06T04:04:55.628Z,0.40
2019-01-06T04:10:20.371Z,0.40
2019-01-06T04:15:43.107Z,0.40
2019-01-06T04:21:18.722Z,0.30
2019-01-06T04:26:53.687Z,0.30
2019-01-06T04:32:19.745Z,0.30
2019-01-06T04:37:57.692Z,0.30
2019-01-06T04:43:34.157Z,0.30
2019-01-06T04:48:58.700Z,0.30
2019-01-06T04:54:26.966Z,0.30
2019-01-06T05:00:11.125Z,0.30
2019-01-06T05:05:34.634Z,0.30
2019-01-06T05:10:59.413Z,0.30
2019-01-06T05:16:35.347Z,0.30
2019-01-06T05:22:01.364Z,0.40
2019-01-06T05:27:26.210Z,0.40
2019-01-06T05:32:50.707Z,0.30
2019-01-06T05:38:34.981Z,0.40
2019-01-06T05:44:05.220Z,0.40
2019-01-06T05:49:29.921Z,0.30
2019-01-06T05:54:56.657Z,0.30
2019-01-06T06:00:25.443Z,0.40
2019-01-06T06:06:05.030Z,0.30
2019-01-06T06:11:30.981Z,0.40
2019-01-06T06:16:59.724Z,0.30
2019-01-06T06:22:25.655Z,0.30
2019-01-06T06:27:51.636Z,0.30
2019-01-06T06:33:16.546Z,0.30
2019-01-06T06:38:48.709Z,0.30
2019-01-06T06:44:23.505Z,0.20
2019-01-06T06:49:58.546Z,0.20
2019-01-06T06:55:27.473Z,0.20
2019-01-06T07:01:08.692Z,0.10
2019-01-06T07:06:43.420Z,0.30
2019-01-06T07:12:06.621Z,0.70
2019-01-06T07:18:18.821Z,1.00
2019-01-06T07:23:44.953Z,1.10
2019-01-06T07:29:14.384Z,1.30
2019-01-06T07:34:46.305Z,1.30
2019-01-06T07:40:30.633Z,1.40
2019-01-06T07:46:00.133Z,1.30
2019-01-06T07:51:33.102Z,1.40
2019-01-06T07:56:59.065Z,1.20
2019-01-06T08:02:27.888Z,1.00
2019-01-06T08:08:07.847Z,0.80
2019-01-06T08:13:32.331Z,0.70
2019-01-06T08:18:58.290Z,0.60
2019-01-06T08:24:30.916Z,0.60
2019-01-06T08:29:56.996Z,0.50
2019-01-06T08:35:21.895Z,0.50
2019-01-06T08:40:51.178Z,0.50
2019-01-06T08:46:34.019Z,0.50
2019-01-06T08:51:58.822Z,0.50
2019-01-06T08:57:31.116Z,0.50
2019-01-06T09:02:56.127Z,0.50
2019-01-06T09:08:21.020Z,0.60
2019-01-06T09:13:51.384Z,0.60
2019-01-06T09:19:32.626Z,0.60
2019-01-06T09:24:57.115Z,0.60
2019-01-06T09:30:29.358Z,0.50
2019-01-06T09:36:02.293Z,0.50
2019-01-06T09:41:29.003Z,0.60
2019-01-06T09:46:53.449Z,0.60
2019-01-06T09:52:20.509Z,0.60
2019-01-06T09:57:52.801Z,0.70
2019-01-06T10:03:24.771Z,0.80
2019-01-06T10:08:59.992Z,0.90
2019-01-06T10:14:28.873Z,0.90
2019-01-06T10:20:13.106Z,1.00
2019-01-06T10:25:42.247Z,1.10
2019-01-06T10:31:11.326Z,1.10
2019-01-06T10:36:53.317Z,1.10
2019-01-06T10:42:34.272Z,1.20
2019-01-06T10:48:00.336Z,1.30
2019-01-06T10:53:29.402Z,1.40
2019-01-06T10:58:57.355Z,1.30
2019-01-06T11:04:33.773Z,1.30
2019-01-06T11:10:00.666Z,1.30
2019-01-06T11:15:39.051Z,1.30
2019-01-06T11:21:04.290Z,1.20
2019-01-06T11:26:47.653Z,1.20
2019-01-06T11:32:13.543Z,1.20
2019-01-06T11:37:39.745Z,1.20
2019-01-06T11:43:08.991Z,1.00
2019-01-06T11:48:33.822Z,1.00
2019-01-06T11:53:59.247Z,1.00
2019-01-06T11:59:25.224Z,1.00
2019-01-06T12:05:03.238Z,0.90
2019-01-06T12:10:35.092Z,0.90
2019-01-06T12:16:01.004Z,0.80
2019-01-06T12:21:25.798Z,0.80
2019-01-06T12:26:57.583Z,0.80
2019-01-06T12:32:36.820Z,0.70
2019-01-06T12:38:01.876Z,0.70
2019-01-06T12:43:28.189Z,0.60
2019-01-06T12:48:40.437Z,0.50
2019-01-06T12:54:06.991Z,0.50
2019-01-06T12:59:33.278Z,0.40
2019-01-06T13:04:59.630Z,0.30
2019-01-06T13:10:30.103Z,0.40
2019-01-06T13:16:11.361Z,0.40
2019-01-06T13:21:38.350Z,0.30
2019-01-06T13:27:07.664Z,0.30
2019-01-06T13:32:37.124Z,0.20
2019-01-06T13:38:03.087Z,0.10
2019-01-06T13:43:44.257Z,0.10
2019-01-06T13:49:22.879Z,0.00
2019-01-06T13:55:01.939Z,-0.10
2019-01-06T14:00:31.638Z,-0.20
2019-01-06T14:06:15.887Z,-0.30
2019-01-06T14:11:42.869Z,-0.40
2019-01-06T14:17:07.477Z,-0.40
2019-01-06T14:22:33.761Z,-0.60
2019-01-06T14:27:59.261Z,-0.60
2019-01-06T14:33:37.382Z,-0.70
2019-01-06T14:39:10.617Z,-0.80
2019-01-06T14:44:33.433Z,-0.80
2019-01-06T14:49:58.317Z,-0.70
2019-01-06T14:55:25.131Z,-0.80
2019-01-06T15:01:07.449Z,-0.80
2019-01-06T15:06:51.470Z,-0.80
2019-01-06T15:12:18.405Z,-0.80
2019-01-06T15:17:42.987Z,-0.90
2019-01-06T15:23:21.146Z,-1.00
2019-01-06T15:28:42.491Z,-1.00
2019-01-06T15:34:20.161Z,-1.00
2019-01-06T15:39:44.871Z,-1.00
2019-01-06T15:45:22.880Z,-1.10
2019-01-06T15:50:49.083Z,-1.10
2019-01-06T15:56:21.045Z,-1.10
2019-01-06T16:01:50.295Z,-1.10
2019-01-06T16:07:07.390Z,-1.20
2019-01-06T16:12:48.876Z,-1.20
2019-01-06T16:18:14.284Z,-1.20
2019-01-06T16:23:39.477Z,-1.20
2019-01-06T16:29:10.233Z,-1.20
2019-01-06T16:34:35.004Z,-1.20
2019-01-06T16:40:02.555Z,-1.10
2019-01-06T16:45:48.879Z,-1.20
2019-01-06T16:51:13.545Z,-1.20
2019-01-06T16:56:49.854Z,-1.30
2019-01-06T17:02:28.178Z,-1.30
2019-01-06T17:07:59.087Z,-1.40
2019-01-06T17:13:29.284Z,-1.40
2019-01-06T17:18:51.415Z,-1.50
2019-01-06T17:24:17.057Z,-1.50
2019-01-06T17:29:51.039Z,-1.50
2019-01-06T17:35:26.447Z,-1.50
2019-01-06T17:40:52.170Z,-1.60
2019-01-06T17:46:18.528Z,-1.60
2019-01-06T17:51:45.764Z,-1.60
2019-01-06T17:57:21.265Z,-1.60
2019-01-06T18:03:02.694Z,-1.60
2019-01-06T18:08:47.524Z,-1.60
2019-01-06T18:14:14.213Z,-1.60
2019-01-06T18:19:39.166Z,-1.60
2019-01-06T18:25:11.361Z,-1.60
2019-01-06T18:30:44.698Z,-1.60
2019-01-06T18:36:30.099Z,-1.60
2019-01-06T18:41:56.161Z,-1.60
2019-01-06T18:47:21.045Z,-1.60
2019-01-06T18:53:00.234Z,-1.60
2019-01-06T18:58:28.955Z,-1.60
2019-01-06T19:04:07.334Z,-1.50
2019-01-06T19:09:48.376Z,-1.60
2019-01-06T19:15:17.381Z,-1.60
2019-01-06T19:20:43.116Z,-1.60
2019-01-06T19:26:08.192Z,-1.70
2019-01-06T19:31:43.068Z,-1.70
2019-01-06T19:37:14.026Z,-1.70
2019-01-06T19:42:44.188Z,-1.70
2019-01-06T19:48:14.362Z,-1.70
2019-01-06T19:53:53.329Z,-1.70
2019-01-06T19:59:28.867Z,-1.70
2019-01-06T20:04:47.205Z,-1.80
2019-01-06T20:10:19.732Z,-1.80
2019-01-06T20:16:00.723Z,-1.80
2019-01-06T20:21:26.676Z,-1.90
2019-01-06T20:26:58.639Z,-1.90
2019-01-06T20:32:27.560Z,-1.90
2019-01-06T20:37:52.061Z,-1.90
2019-01-06T20:43:18.195Z,-1.90
2019-01-06T20:48:45.217Z,-1.80
2019-01-06T20:54:18.110Z,-1.70
2019-01-06T21:00:03.503Z,-1.70
2019-01-06T21:05:43.139Z,-1.70
2019-01-06T21:11:21.506Z,-1.60
2019-01-06T21:16:51.657Z,-1.60
2019-01-06T21:22:26.858Z,-1.60
2019-01-06T21:27:51.592Z,-1.50
2019-01-06T21:33:16.399Z,-1.50
2019-01-06T21:38:57.800Z,-1.50
2019-01-06T21:44:23.588Z,-1.50
2019-01-06T21:49:46.653Z,-1.50
2019-01-06T21:55:11.326Z,-1.50
2019-01-06T22:00:46.537Z,-1.60
2019-01-06T22:06:16.440Z,-1.60
2019-01-06T22:11:41.115Z,-1.60
2019-01-06T22:17:04.206Z,-1.60
2019-01-06T22:22:41.029Z,-1.50
2019-01-06T22:28:04.870Z,-1.50
2019-01-06T22:33:31.115Z,-1.50
2019-01-06T22:39:03.380Z,-1.50
2019-01-06T22:44:33.173Z,-1.50
2019-01-06T22:50:00.793Z,-1.50
2019-01-06T22:55:21.936Z,-1.50
2019-01-06T23:00:50.493Z,-1.50
2019-01-06T23:06:22.928Z,-1.40
2019-01-06T23:11:48.906Z,-1.40
2019-01-06T23:17:32.945Z,-1.40
2019-01-06T23:22:58.029Z,-1.40
2019-01-06T23:28:27.590Z,-1.40
2019-01-06T23:33:53.268Z,-1.50
2019-01-06T23:39:17.932Z,-1.50
2019-01-06T23:44:42.679Z,-1.50
2019-01-06T23:50:09.129Z,-1.50
2019-01-06T23:55:34.333Z,-1.50
